Time;durP1;ratioP1;P1;durP2;ratioP2;P2;SDS_P1;SDS_P2;PMS_P1;PMS_P2;Temp;Humidity;BMP_temperature;BMP_pressure;BME280_temperature;BME280_humidity;BME280_pressure;Samples;Min_cycle;Max_cycle;Signal;HPM_P1;HPM_P2
2024/03/06 00:00:29;;;;;;;2.35;0.90;;;;;;;;;;6269858;28;24498;-81
2024/03/06 00:03:47;;;;;;;0.98;0.65;;;;;;;;;;6264921;28;24424;-83
2024/03/06 00:06:51;;;;;;;1.83;0.93;;;;;;;;;;6274983;28;24420;-82
2024/03/06 00:09:54;;;;;;;1.42;0.70;;;;;;;;;;6268290;28;24455;-83
2024/03/06 00:12:56;;;;;;;2.38;0.75;;;;;;;;;;6272252;28;24872;-82
2024/03/06 00:16:00;;;;;;;1.30;0.70;;;;;;;;;;6268278;28;24734;-82
2024/03/06 00:19:04;;;;;;;3.17;1.85;;;;;;;;;;6273722;28;24420;-81
2024/03/06 00:22:06;;;;;;;7.57;4.13;;;;;;;;;;6273406;28;24412;-81
2024/03/06 00:25:17;;;;;;;36.25;14.88;;;;;;;;;;6272787;28;24419;-83
2024/03/06 00:28:19;;;;;;;82.80;38.83;;;;;;;;;;6270659;28;24419;-81
2024/03/06 00:31:21;;;;;;;12.87;5.90;;;;;;;;;;6269730;28;24507;-81
2024/03/06 00:34:26;;;;;;;22.65;10.55;;;;;;;;;;6270626;28;24415;-82
2024/03/06 00:37:28;;;;;;;83.45;36.53;;;;;;;;;;6241257;28;24461;-80
2024/03/06 00:40:31;;;;;;;39.43;19.90;;;;;;;;;;6243684;28;24799;-83
2024/03/06 00:43:33;;;;;;;138.60;62.97;;;;;;;;;;6243789;28;24444;-80
2024/03/06 00:46:35;;;;;;;2.35;1.00;;;;;;;;;;6243159;28;24651;-81
2024/03/06 00:49:39;;;;;;;1.87;0.93;;;;;;;;;;6242709;28;24648;-82
2024/03/06 00:52:41;;;;;;;1.75;0.90;;;;;;;;;;6243874;28;24454;-83
2024/03/06 00:55:48;;;;;;;2.30;0.90;;;;;;;;;;6245234;28;24627;-82
2024/03/06 00:58:50;;;;;;;3.08;1.08;;;;;;;;;;6251396;28;24415;-82
2024/03/06 01:01:55;;;;;;;2.30;1.00;;;;;;;;;;6275104;28;24407;-83
2024/03/06 01:05:06;;;;;;;1.63;0.80;;;;;;;;;;6270574;28;24423;-80
2024/03/06 01:08:11;;;;;;;1.70;1.00;;;;;;;;;;6273389;28;24426;-83
2024/03/06 01:11:14;;;;;;;1.27;0.80;;;;;;;;;;6271860;28;24619;-80
2024/03/06 01:14:16;;;;;;;3.35;0.98;;;;;;;;;;6272757;28;24421;-80
2024/03/06 01:17:18;;;;;;;2.57;0.90;;;;;;;;;;6272907;28;24612;-81
2024/03/06 01:20:21;;;;;;;1.50;0.70;;;;;;;;;;6272998;28;24418;-80
2024/03/06 01:23:30;;;;;;;1.75;0.90;;;;;;;;;;6271728;28;24832;-80
2024/03/06 01:26:34;;;;;;;1.47;0.80;;;;;;;;;;6272562;28;24419;-80
2024/03/06 01:29:36;;;;;;;1.20;0.70;;;;;;;;;;6269350;28;24431;-81
2024/03/06 01:32:38;;;;;;;1.60;0.90;;;;;;;;;;6272678;28;24818;-81
2024/03/06 01:35:42;;;;;;;1.95;1.05;;;;;;;;;;6268593;28;24846;-82
2024/03/06 01:38:45;;;;;;;2.13;0.90;;;;;;;;;;6270439;28;24881;-84
2024/03/06 01:41:48;;;;;;;2.63;1.20;;;;;;;;;;6271370;28;24470;-81
2024/03/06 01:44:50;;;;;;;6.35;1.00;;;;;;;;;;6270704;28;24826;-80
2024/03/06 01:47:51;;;;;;;1.73;0.85;;;;;;;;;;6266961;28;24414;-83
2024/03/06 01:51:02;;;;;;;1.77;0.80;;;;;;;;;;6271825;28;24438;-83
2024/03/06 01:54:10;;;;;;;1.27;0.80;;;;;;;;;;6273825;28;24431;-81
2024/03/06 01:57:16;;;;;;;1.77;0.90;;;;;;;;;;6269621;28;24419;-82
2024/03/06 02:00:18;;;;;;;1.90;0.80;;;;;;;;;;6270121;28;24426;-81
2024/03/06 02:03:20;;;;;;;1.90;1.23;;;;;;;;;;6271832;28;24874;-83
2024/03/06 02:06:23;;;;;;;1.40;0.90;;;;;;;;;;6270550;28;24431;-83
2024/03/06 02:09:25;;;;;;;1.20;0.85;;;;;;;;;;6268963;28;24849;-82
2024/03/06 02:12:27;;;;;;;1.92;1.00;;;;;;;;;;6269561;28;24833;-80
2024/03/06 02:15:32;;;;;;;1.33;0.80;;;;;;;;;;6270614;28;24465;-82
2024/03/06 02:18:34;;;;;;;1.70;0.80;;;;;;;;;;6273397;28;24426;-80
2024/03/06 02:21:39;;;;;;;2.67;0.70;;;;;;;;;;6271561;28;24521;-82
2024/03/06 02:24:45;;;;;;;3.30;1.10;;;;;;;;;;6269115;28;24435;-80
2024/03/06 02:27:49;;;;;;;1.80;1.13;;;;;;;;;;6273088;28;24415;-81
2024/03/06 02:30:51;;;;;;;2.10;1.17;;;;;;;;;;6269484;28;24623;-79
2024/03/06 02:34:02;;;;;;;2.08;1.13;;;;;;;;;;6271245;28;24486;-84
2024/03/06 02:37:05;;;;;;;1.77;1.10;;;;;;;;;;6268246;28;24478;-82
2024/03/06 02:40:09;;;;;;;1.73;1.20;;;;;;;;;;6268545;28;24642;-80
2024/03/06 02:43:11;;;;;;;1.85;1.20;;;;;;;;;;6268234;28;24430;-81
2024/03/06 02:46:13;;;;;;;1.58;1.10;;;;;;;;;;6264025;28;24627;-81
2024/03/06 02:49:15;;;;;;;2.78;1.35;;;;;;;;;;6264793;28;24499;-81
2024/03/06 02:52:21;;;;;;;2.08;1.50;;;;;;;;;;6266124;28;24841;-82
2024/03/06 02:55:23;;;;;;;1.70;1.20;;;;;;;;;;6265977;28;24585;-82
2024/03/06 02:58:25;;;;;;;2.00;1.17;;;;;;;;;;6264090;28;24694;-82
2024/03/06 03:01:28;;;;;;;1.80;1.20;;;;;;;;;;6265978;28;24846;-82
2024/03/06 03:04:35;;;;;;;2.80;1.30;;;;;;;;;;6260620;28;24530;-81
2024/03/06 03:07:41;;;;;;;1.33;1.17;;;;;;;;;;6262528;28;24462;-81
2024/03/06 03:10:44;;;;;;;2.75;1.30;;;;;;;;;;6261862;28;24486;-81
2024/03/06 03:13:49;;;;;;;3.05;1.40;;;;;;;;;;6263946;28;24821;-81
2024/03/06 03:16:51;;;;;;;1.70;1.23;;;;;;;;;;6261919;28;24522;-81
2024/03/06 03:19:56;;;;;;;2.55;1.20;;;;;;;;;;6254411;28;24434;-81
2024/03/06 03:23:02;;;;;;;2.30;1.50;;;;;;;;;;6264439;28;24415;-82
2024/03/06 03:26:04;;;;;;;1.97;1.30;;;;;;;;;;6260378;28;24423;-83
2024/03/06 03:29:06;;;;;;;2.40;1.40;;;;;;;;;;6263060;28;24425;-81
2024/03/06 03:32:08;;;;;;;2.72;1.58;;;;;;;;;;6265099;28;24466;-81
2024/03/06 03:35:10;;;;;;;2.25;1.40;;;;;;;;;;6263236;28;24411;-80
2024/03/06 03:38:13;;;;;;;2.40;1.60;;;;;;;;;;6264740;28;24427;-81
2024/03/06 03:41:16;;;;;;;2.03;1.45;;;;;;;;;;6267736;28;24529;-82
2024/03/06 03:44:19;;;;;;;2.53;1.40;;;;;;;;;;6263173;28;24849;-81
2024/03/06 03:47:22;;;;;;;2.07;1.43;;;;;;;;;;6267531;28;24495;-82
2024/03/06 03:50:24;;;;;;;3.13;1.50;;;;;;;;;;6263692;28;24466;-81
2024/03/06 03:53:27;;;;;;;2.90;1.30;;;;;;;;;;6269783;28;24416;-81
2024/03/06 03:56:33;;;;;;;1.58;1.20;;;;;;;;;;6265003;28;24511;-81
2024/03/06 03:59:37;;;;;;;1.77;1.10;;;;;;;;;;6264517;28;24555;-80
2024/03/06 04:02:39;;;;;;;2.17;1.40;;;;;;;;;;6263130;28;24427;-81
2024/03/06 04:05:41;;;;;;;1.50;1.33;;;;;;;;;;6264043;28;24412;-81
2024/03/06 04:08:46;;;;;;;2.10;1.45;;;;;;;;;;6267154;28;24425;-81
2024/03/06 04:11:48;;;;;;;2.20;1.52;;;;;;;;;;6268237;28;24431;-81
2024/03/06 04:14:50;;;;;;;2.05;1.58;;;;;;;;;;6272629;28;24430;-83
2024/03/06 04:17:52;;;;;;;2.45;2.00;;;;;;;;;;6269125;28;24416;-81
2024/03/06 04:21:00;;;;;;;4.38;2.17;;;;;;;;;;6269449;28;24518;-84
2024/03/06 04:24:04;;;;;;;2.80;2.45;;;;;;;;;;6273302;28;24816;-82
2024/03/06 04:27:06;;;;;;;2.75;2.15;;;;;;;;;;6270023;28;24430;-81
2024/03/06 04:30:09;;;;;;;2.78;2.20;;;;;;;;;;6266410;28;24431;-82
2024/03/06 04:33:13;;;;;;;2.75;2.35;;;;;;;;;;6269076;28;24470;-83
2024/03/06 04:36:18;;;;;;;2.50;2.30;;;;;;;;;;6268923;28;24477;-83
2024/03/06 04:39:21;;;;;;;3.13;2.45;;;;;;;;;;6269036;28;24418;-82
2024/03/06 04:42:23;;;;;;;2.83;2.28;;;;;;;;;;6269682;28;24480;-82
2024/03/06 04:45:28;;;;;;;2.78;2.58;;;;;;;;;;6266756;28;24407;-81
2024/03/06 04:48:32;;;;;;;2.47;2.27;;;;;;;;;;6264531;28;24646;-80
2024/03/06 04:51:35;;;;;;;3.08;2.42;;;;;;;;;;6268020;28;24443;-82
2024/03/06 04:54:38;;;;;;;3.42;2.80;;;;;;;;;;6265793;28;24426;-84
2024/03/06 04:57:41;;;;;;;3.10;2.42;;;;;;;;;;6264623;28;24821;-83
2024/03/06 05:00:44;;;;;;;2.97;2.67;;;;;;;;;;6264013;28;24431;-81
2024/03/06 05:03:45;;;;;;;3.97;3.08;;;;;;;;;;6266052;28;24439;-80
2024/03/06 05:06:48;;;;;;;5.65;4.00;;;;;;;;;;6264320;28;24419;-81
2024/03/06 05:09:51;;;;;;;4.90;4.20;;;;;;;;;;6267502;28;25448;-83
2024/03/06 05:12:53;;;;;;;5.80;4.40;;;;;;;;;;6263014;28;24459;-82
2024/03/06 05:15:55;;;;;;;5.28;4.60;;;;;;;;;;6266697;28;24439;-80
2024/03/06 05:18:57;;;;;;;5.43;4.70;;;;;;;;;;6267942;28;24461;-81
2024/03/06 05:21:59;;;;;;;4.77;4.20;;;;;;;;;;6267407;28;24434;-83
2024/03/06 05:25:05;;;;;;;6.60;4.50;;;;;;;;;;6264976;28;24430;-83
2024/03/06 05:28:07;;;;;;;4.88;4.30;;;;;;;;;;6267122;28;24454;-82
2024/03/06 05:31:17;;;;;;;6.28;4.47;;;;;;;;;;6264464;28;24496;-81
2024/03/06 05:34:19;;;;;;;7.40;4.47;;;;;;;;;;6266620;28;24412;-81
2024/03/06 05:37:21;;;;;;;5.30;4.22;;;;;;;;;;6261653;28;24803;-81
2024/03/06 05:40:24;;;;;;;5.43;3.40;;;;;;;;;;6266366;28;24811;-81
2024/03/06 05:43:26;;;;;;;6.63;3.50;;;;;;;;;;6264042;28;24533;-80
2024/03/06 05:46:27;;;;;;;6.23;3.00;;;;;;;;;;6264633;28;24446;-80
2024/03/06 05:49:33;;;;;;;4.35;2.45;;;;;;;;;;6263169;28;24853;-82
2024/03/06 05:52:35;;;;;;;7.38;2.30;;;;;;;;;;6266217;28;24502;-82
2024/03/06 05:55:38;;;;;;;3.75;2.00;;;;;;;;;;6263805;28;24511;-83
2024/03/06 05:58:40;;;;;;;2.90;1.50;;;;;;;;;;6265678;28;24474;-82
2024/03/06 06:01:42;;;;;;;4.43;1.83;;;;;;;;;;6265046;28;24822;-81
2024/03/06 06:04:45;;;;;;;4.45;1.65;;;;;;;;;;6265438;28;24422;-81
2024/03/06 06:07:47;;;;;;;1.70;1.20;;;;;;;;;;6262277;28;24647;-80
2024/03/06 06:10:54;;;;;;;2.42;1.20;;;;;;;;;;6266037;28;24407;-81
2024/03/06 06:13:56;;;;;;;2.65;1.00;;;;;;;;;;6262684;28;24439;-83
2024/03/06 06:17:07;;;;;;;3.38;1.10;;;;;;;;;;6265843;28;24418;-80
2024/03/06 06:20:19;;;;;;;3.17;1.00;;;;;;;;;;6265252;28;24411;-80
2024/03/06 06:23:27;;;;;;;1.80;0.80;;;;;;;;;;6261059;28;24422;-80
2024/03/06 06:26:30;;;;;;;1.80;0.90;;;;;;;;;;6272193;28;24842;-81
2024/03/06 06:29:32;;;;;;;3.38;1.90;;;;;;;;;;6261499;28;24418;-81
2024/03/06 06:32:35;;;;;;;4.80;3.10;;;;;;;;;;6263628;28;24431;-82
2024/03/06 06:35:37;;;;;;;6.72;4.22;;;;;;;;;;6263945;28;24422;-83
2024/03/06 06:38:38;;;;;;;6.32;4.30;;;;;;;;;;6264803;28;25040;-81
2024/03/06 06:41:43;;;;;;;7.27;4.03;;;;;;;;;;6262682;28;24610;-80
2024/03/06 06:44:45;;;;;;;7.05;4.47;;;;;;;;;;6260601;28;24431;-82
2024/03/06 06:47:50;;;;;;;5.50;3.70;;;;;;;;;;6260902;28;24458;-81
2024/03/06 06:50:51;;;;;;;7.18;4.15;;;;;;;;;;6265645;28;24423;-82
2024/03/06 06:53:54;;;;;;;8.90;4.45;;;;;;;;;;6264497;28;24427;-81
2024/03/06 06:56:57;;;;;;;6.28;3.80;;;;;;;;;;6264288;28;24419;-81
2024/03/06 06:59:59;;;;;;;4.40;3.17;;;;;;;;;;6264543;28;24431;-82
2024/03/06 07:03:01;;;;;;;4.85;2.50;;;;;;;;;;6263014;28;24408;-82
2024/03/06 07:06:04;;;;;;;4.43;2.00;;;;;;;;;;6260712;28;24838;-84
2024/03/06 07:09:09;;;;;;;4.77;1.80;;;;;;;;;;6264086;28;24811;-80
2024/03/06 07:12:18;;;;;;;2.37;1.30;;;;;;;;;;6263969;28;24520;-81
2024/03/06 07:15:20;;;;;;;4.15;1.45;;;;;;;;;;6261347;28;24420;-83
2024/03/06 07:18:22;;;;;;;2.58;1.20;;;;;;;;;;6262710;28;24623;-80
2024/03/06 07:21:24;;;;;;;3.70;1.30;;;;;;;;;;6261545;28;24425;-83
2024/03/06 07:24:25;;;;;;;2.85;1.15;;;;;;;;;;6262915;28;24788;-83
2024/03/06 07:27:29;;;;;;;5.43;1.70;;;;;;;;;;6264653;28;24799;-83
2024/03/06 07:30:30;;;;;;;2.45;1.27;;;;;;;;;;6262581;28;24519;-81
2024/03/06 07:33:33;;;;;;;4.15;1.33;;;;;;;;;;6262112;28;24448;-83
2024/03/06 07:36:35;;;;;;;2.85;1.42;;;;;;;;;;6262823;28;24818;-83
2024/03/06 07:39:38;;;;;;;3.85;1.40;;;;;;;;;;6261841;28;24508;-82
2024/03/06 07:42:42;;;;;;;3.37;1.47;;;;;;;;;;6269063;28;24676;-83
2024/03/06 07:45:48;;;;;;;3.75;1.65;;;;;;;;;;6264719;28;24499;-83
2024/03/06 07:48:53;;;;;;;4.57;1.40;;;;;;;;;;6269643;28;24492;-82
2024/03/06 07:51:55;;;;;;;2.72;1.50;;;;;;;;;;6265734;28;24424;-82
2024/03/06 07:54:57;;;;;;;3.37;1.50;;;;;;;;;;6268214;28;24608;-83
2024/03/06 07:58:00;;;;;;;4.47;1.65;;;;;;;;;;6265694;28;24419;-81
2024/03/06 08:01:02;;;;;;;3.87;1.73;;;;;;;;;;6266001;28;24503;-80
2024/03/06 08:04:03;;;;;;;4.35;1.40;;;;;;;;;;6267348;28;24416;-82
2024/03/06 08:07:06;;;;;;;2.38;1.50;;;;;;;;;;6266638;28;24415;-81
2024/03/06 08:10:08;;;;;;;2.15;1.25;;;;;;;;;;6267212;28;24423;-83
2024/03/06 08:13:14;;;;;;;4.30;1.80;;;;;;;;;;6265359;28;24432;-81
2024/03/06 08:16:19;;;;;;;2.70;1.50;;;;;;;;;;6264810;28;24502;-82
2024/03/06 08:19:24;;;;;;;4.85;1.70;;;;;;;;;;6269146;28;24422;-82
2024/03/06 08:22:27;;;;;;;5.07;2.27;;;;;;;;;;6266427;28;24875;-80
2024/03/06 08:25:32;;;;;;;4.07;1.60;;;;;;;;;;6265421;28;24474;-82
2024/03/06 08:28:36;;;;;;;2.90;1.80;;;;;;;;;;6264707;28;24462;-81
2024/03/06 08:31:48;;;;;;;4.38;2.17;;;;;;;;;;6270230;28;24442;-81
2024/03/06 08:34:50;;;;;;;4.50;2.10;;;;;;;;;;6264436;28;24420;-83
2024/03/06 08:37:52;;;;;;;3.60;2.00;;;;;;;;;;6268241;28;24410;-83
2024/03/06 08:40:54;;;;;;;3.92;2.08;;;;;;;;;;6266652;28;24596;-83
2024/03/06 08:43:57;;;;;;;4.10;2.20;;;;;;;;;;6263236;28;24436;-82
2024/03/06 08:46:59;;;;;;;3.13;2.08;;;;;;;;;;6271706;28;24623;-83
2024/03/06 08:50:02;;;;;;;3.65;2.00;;;;;;;;;;6266399;28;24486;-83
2024/03/06 08:53:04;;;;;;;4.30;2.40;;;;;;;;;;6261861;28;24435;-83
2024/03/06 08:56:07;;;;;;;3.10;1.53;;;;;;;;;;6265243;28;24416;-83
2024/03/06 08:59:10;;;;;;;2.90;1.67;;;;;;;;;;6265523;28;24430;-82
2024/03/06 09:02:14;;;;;;;2.33;1.50;;;;;;;;;;6268499;28;24428;-83
2024/03/06 09:05:16;;;;;;;4.07;1.92;;;;;;;;;;6263088;28;24647;-84
2024/03/06 09:08:18;;;;;;;2.33;1.60;;;;;;;;;;6264591;28;24431;-82
2024/03/06 09:11:20;;;;;;;4.85;1.70;;;;;;;;;;6264757;28;24482;-83
2024/03/06 09:14:23;;;;;;;5.97;1.90;;;;;;;;;;6265478;28;24416;-81
2024/03/06 09:17:25;;;;;;;4.13;1.92;;;;;;;;;;6264333;28;24466;-83
2024/03/06 09:20:27;;;;;;;4.45;1.98;;;;;;;;;;6265729;28;24896;-82
2024/03/06 09:23:29;;;;;;;4.70;2.15;;;;;;;;;;6266271;28;25350;-83
2024/03/06 09:26:32;;;;;;;5.13;2.10;;;;;;;;;;6265577;28;24557;-83
2024/03/06 09:29:35;;;;;;;4.10;1.80;;;;;;;;;;6263812;28;24436;-82
2024/03/06 09:32:39;;;;;;;4.87;1.90;;;;;;;;;;6263731;28;24631;-80
2024/03/06 09:35:44;;;;;;;3.90;2.00;;;;;;;;;;6264828;28;24516;-81
2024/03/06 09:38:49;;;;;;;4.85;2.40;;;;;;;;;;6264994;28;24503;-82
2024/03/06 09:41:51;;;;;;;3.50;2.20;;;;;;;;;;6262465;28;24427;-83
2024/03/06 09:44:55;;;;;;;4.75;2.35;;;;;;;;;;6264274;28;24451;-81
2024/03/06 09:48:00;;;;;;;4.80;2.10;;;;;;;;;;6264290;28;25140;-83
2024/03/06 09:51:05;;;;;;;3.10;1.90;;;;;;;;;;6265064;28;24458;-82
2024/03/06 09:54:09;;;;;;;4.63;2.10;;;;;;;;;;6262445;28;24440;-83
2024/03/06 09:57:12;;;;;;;6.22;3.58;;;;;;;;;;6265386;28;24432;-83
2024/03/06 10:00:17;;;;;;;6.95;3.00;;;;;;;;;;6239626;28;24416;-85
2024/03/06 10:03:20;;;;;;;5.47;3.20;;;;;;;;;;6235977;28;24416;-82
2024/03/06 10:06:22;;;;;;;4.95;2.92;;;;;;;;;;6235670;28;24668;-82
2024/03/06 10:09:24;;;;;;;7.15;4.95;;;;;;;;;;6242360;28;24424;-82
2024/03/06 10:12:28;;;;;;;11.53;6.00;;;;;;;;;;6239169;28;24833;-82
2024/03/06 10:15:35;;;;;;;10.43;5.88;;;;;;;;;;6238447;28;24796;-84
2024/03/06 10:18:47;;;;;;;9.32;5.57;;;;;;;;;;6241003;28;24490;-82
2024/03/06 10:21:50;;;;;;;9.02;5.22;;;;;;;;;;6238857;28;24454;-81
2024/03/06 10:24:56;;;;;;;9.77;5.90;;;;;;;;;;6238322;28;24427;-81
2024/03/06 10:28:08;;;;;;;10.45;6.00;;;;;;;;;;6240023;28;24550;-82
2024/03/06 10:31:11;;;;;;;9.23;5.45;;;;;;;;;;6241009;28;24815;-82
2024/03/06 10:34:12;;;;;;;10.32;5.30;;;;;;;;;;6239720;28;24612;-80
2024/03/06 10:37:15;;;;;;;8.90;5.03;;;;;;;;;;6238572;28;24497;-81
2024/03/06 10:40:18;;;;;;;9.67;5.20;;;;;;;;;;6239593;28;24413;-83
2024/03/06 10:43:22;;;;;;;9.52;5.05;;;;;;;;;;6239227;28;24412;-83
2024/03/06 10:46:28;;;;;;;9.93;5.68;;;;;;;;;;6244499;28;24435;-84
2024/03/06 10:49:31;;;;;;;9.23;5.93;;;;;;;;;;6241780;28;24470;-82
2024/03/06 10:52:34;;;;;;;8.55;5.05;;;;;;;;;;6240716;28;24420;-81
2024/03/06 10:55:40;;;;;;;7.97;5.40;;;;;;;;;;6235563;28;24430;-82
2024/03/06 10:58:45;;;;;;;12.57;6.07;;;;;;;;;;6251078;28;24627;-83
2024/03/06 11:01:49;;;;;;;8.07;5.38;;;;;;;;;;6259117;28;24498;-82
2024/03/06 11:04:52;;;;;;;9.07;6.28;;;;;;;;;;6264405;28;24515;-82
2024/03/06 11:07:55;;;;;;;11.38;6.20;;;;;;;;;;6265354;28;24483;-82
2024/03/06 11:11:23;;;;;;;12.60;6.00;;;;;;;;;;6264308;28;24679;-83
2024/03/06 11:14:25;;;;;;;9.02;5.20;;;;;;;;;;6265337;28;24435;-81
2024/03/06 11:17:28;;;;;;;9.23;5.15;;;;;;;;;;6268913;28;24606;-83
2024/03/06 11:20:34;;;;;;;7.18;5.10;;;;;;;;;;6267865;28;24412;-83
2024/03/06 11:24:15;;;;;;;7.63;4.57;;;;;;;;;;6268578;28;24423;-82
2024/03/06 11:27:17;;;;;;;8.90;5.50;;;;;;;;;;6268527;28;24462;-83
2024/03/06 11:30:23;;;;;;;8.32;4.82;;;;;;;;;;6265942;28;24462;-83
2024/03/06 11:33:36;;;;;;;8.18;5.20;;;;;;;;;;6268137;28;24861;-81
2024/03/06 11:36:38;;;;;;;9.25;5.10;;;;;;;;;;6266710;28;24422;-82
2024/03/06 11:39:41;;;;;;;8.02;4.40;;;;;;;;;;6269509;28;25268;-82
2024/03/06 11:42:43;;;;;;;7.63;4.30;;;;;;;;;;6265773;28;24473;-81
2024/03/06 11:45:47;;;;;;;8.30;4.25;;;;;;;;;;6266983;28;24415;-81
2024/03/06 11:49:00;;;;;;;7.82;4.43;;;;;;;;;;6266225;28;24787;-81
2024/03/06 11:52:04;;;;;;;9.77;4.07;;;;;;;;;;6272596;28;24411;-82
2024/03/06 11:55:07;;;;;;;7.30;4.30;;;;;;;;;;6270261;28;24473;-81
2024/03/06 11:58:11;;;;;;;8.38;4.43;;;;;;;;;;6259234;28;24420;-81
2024/03/06 12:01:13;;;;;;;8.90;4.53;;;;;;;;;;6245178;28;24428;-82
2024/03/06 12:04:16;;;;;;;9.07;5.10;;;;;;;;;;6242216;28;24597;-81
2024/03/06 12:07:22;;;;;;;99.82;52.85;;;;;;;;;;6248595;28;24427;-80
2024/03/06 12:10:24;;;;;;;8.75;3.97;;;;;;;;;;6243129;28;24502;-82
2024/03/06 12:13:26;;;;;;;64.40;39.00;;;;;;;;;;6247318;28;24443;-83
2024/03/06 12:16:28;;;;;;;7.13;3.72;;;;;;;;;;6245037;28;24419;-82
2024/03/06 12:19:33;;;;;;;5.00;3.07;;;;;;;;;;6244210;28;24926;-82
2024/03/06 12:22:36;;;;;;;3.90;2.33;;;;;;;;;;6244726;28;24423;-81
2024/03/06 12:25:38;;;;;;;4.80;2.33;;;;;;;;;;6242032;28;24524;-78
2024/03/06 12:28:40;;;;;;;3.92;2.22;;;;;;;;;;6244038;28;24419;-82
2024/03/06 12:31:43;;;;;;;2.33;1.60;;;;;;;;;;6242816;28;24438;-81
2024/03/06 12:35:02;;;;;;;4.00;1.88;;;;;;;;;;6240155;28;24427;-81
2024/03/06 12:38:13;;;;;;;4.60;1.70;;;;;;;;;;6241016;28;24431;-83
2024/03/06 12:41:15;;;;;;;21.15;5.82;;;;;;;;;;6239158;28;24631;-81
2024/03/06 12:44:17;;;;;;;6.10;2.85;;;;;;;;;;6242009;28;24408;-81
2024/03/06 12:47:19;;;;;;;6.22;2.78;;;;;;;;;;6244574;28;24473;-82
2024/03/06 12:50:22;;;;;;;6.22;2.55;;;;;;;;;;6240796;28;24822;-83
2024/03/06 12:53:25;;;;;;;5.80;2.40;;;;;;;;;;6244027;28;24428;-81
2024/03/06 12:56:27;;;;;;;4.22;2.08;;;;;;;;;;6244352;28;24448;-84
2024/03/06 12:59:29;;;;;;;6.88;1.75;;;;;;;;;;6261750;28;24430;-84
2024/03/06 13:02:31;;;;;;;3.97;1.20;;;;;;;;;;6265046;28;24612;-82
2024/03/06 13:05:40;;;;;;;2.95;0.90;;;;;;;;;;6264599;28;24440;-83
2024/03/06 13:09:03;;;;;;;5.35;0.90;;;;;;;;;;6265762;28;24452;-83
2024/03/06 13:12:06;;;;;;;1.80;0.70;;;;;;;;;;6247392;28;24542;-84
2024/03/06 13:15:11;;;;;;;1.30;0.70;;;;;;;;;;6268360;28;24424;-82
2024/03/06 13:18:15;;;;;;;2.55;0.77;;;;;;;;;;6267042;28;24420;-82
2024/03/06 13:21:19;;;;;;;1.55;0.60;;;;;;;;;;6242423;28;24416;-82
2024/03/06 13:24:21;;;;;;;1.42;0.50;;;;;;;;;;6263284;28;24499;-81
2024/03/06 13:27:29;;;;;;;1.13;0.50;;;;;;;;;;6267041;28;24427;-82
2024/03/06 13:30:32;;;;;;;2.03;0.50;;;;;;;;;;6266761;28;24803;-84
2024/03/06 13:33:34;;;;;;;1.52;0.68;;;;;;;;;;6265284;28;24438;-85
2024/03/06 13:36:38;;;;;;;3.10;0.70;;;;;;;;;;6266596;28;24413;-83
2024/03/06 13:39:40;;;;;;;2.85;0.60;;;;;;;;;;6266922;28;24479;-82
2024/03/06 13:42:46;;;;;;;1.20;0.60;;;;;;;;;;6267659;28;24442;-82
2024/03/06 13:45:50;;;;;;;1.55;0.60;;;;;;;;;;6266467;28;24494;-83
2024/03/06 13:48:59;;;;;;;1.63;0.50;;;;;;;;;;6263931;28;24408;-82
2024/03/06 13:52:20;;;;;;;4.30;0.70;;;;;;;;;;6267242;28;24498;-83
2024/03/06 13:55:22;;;;;;;1.33;0.60;;;;;;;;;;6265897;28;24806;-83
2024/03/06 14:01:42;;;;;;;1.67;0.65;;;;;;;;;;6250271;28;24544;-82
2024/03/06 14:04:44;;;;;;;3.72;1.38;;;;;;;;;;6272267;28;24444;-84
2024/03/06 14:07:49;;;;;;;3.20;0.80;;;;;;;;;;6268893;28;24415;-82
2024/03/06 14:10:51;;;;;;;1.75;0.80;;;;;;;;;;6264426;28;24474;-83
2024/03/06 14:18:14;;;;;;;4.93;0.75;;;;;;;;;;6238197;28;25220;-81
2024/03/06 14:25:54;;;;;;;2.60;0.70;;;;;;;;;;6205585;28;24462;-81
2024/03/06 14:29:09;;;;;;;2.97;1.30;;;;;;;;;;6219413;28;24455;-83
2024/03/06 14:32:37;;;;;;;38.30;19.35;;;;;;;;;;6229887;28;24427;-82
2024/03/06 14:36:12;;;;;;;65.22;38.20;;;;;;;;;;6230791;28;24818;-84
2024/03/06 14:39:48;;;;;;;92.70;43.28;;;;;;;;;;6237459;28;24432;-85
2024/03/06 14:43:45;;;;;;;36.90;22.02;;;;;;;;;;6207892;28;24523;-83
2024/03/06 15:02:17;;;;;;;3.00;0.95;;;;;;;;;;6239609;28;20826;-82
2024/03/06 15:13:37;;;;;;;2.70;0.98;;;;;;;;;;6146004;28;24425;-82
2024/03/06 15:17:25;;;;;;;3.53;1.05;;;;;;;;;;6140279;28;24888;-83
2024/03/06 15:23:55;;;;;;;3.15;1.00;;;;;;;;;;6117490;29;24452;-83
2024/03/06 15:27:10;;;;;;;2.33;0.93;;;;;;;;;;6117340;28;24435;-82
2024/03/06 15:30:18;;;;;;;2.70;0.95;;;;;;;;;;6116924;29;24567;-82
2024/03/06 15:33:26;;;;;;;4.05;1.15;;;;;;;;;;6107370;29;24410;-82
2024/03/06 15:40:20;;;;;;;3.83;0.90;;;;;;;;;;6115228;29;24415;-81
2024/03/06 15:43:35;;;;;;;1.88;1.00;;;;;;;;;;6110882;28;24562;-81
2024/03/06 15:46:42;;;;;;;3.65;1.10;;;;;;;;;;6116509;29;24828;-81
2024/03/06 15:49:45;;;;;;;4.43;1.13;;;;;;;;;;6187108;28;24674;-81
2024/03/06 15:59:53;;;;;;;4.03;0.90;;;;;;;;;;6250382;28;24522;-82
2024/03/06 16:07:02;;;;;;;3.33;1.00;;;;;;;;;;6162709;28;24425;-82
2024/03/06 16:10:58;;;;;;;5.88;0.90;;;;;;;;;;6194576;28;24405;-84
2024/03/06 16:14:42;;;;;;;3.05;0.93;;;;;;;;;;6171971;28;24429;-84
2024/03/06 16:19:07;;;;;;;2.77;0.90;;;;;;;;;;6180629;28;24424;-83
2024/03/06 16:26:52;;;;;;;3.92;1.05;;;;;;;;;;6124923;28;24438;-82
2024/03/06 16:30:24;;;;;;;90.45;56.72;;;;;;;;;;6107139;29;24439;-81
2024/03/06 16:38:00;;;;;;;12.00;6.90;;;;;;;;;;6107685;29;24666;-82
2024/03/06 16:41:52;;;;;;;4.32;1.88;;;;;;;;;;6100995;29;24577;-83
2024/03/06 16:54:17;;;;;;;5.68;1.13;;;;;;;;;;6040071;29;24650;-84
2024/03/06 17:18:16;;;;;;;4.07;1.50;;;;;;;;;;5932084;29;24428;-83
2024/03/06 18:44:00;;;;;;;5.22;2.00;;;;;;;;;;7806465;22;24941;-86
2024/03/06 18:47:52;;;;;;;6.30;2.45;;;;;;;;;;7733681;22;24461;-86
2024/03/06 19:02:00;;;;;;;7.28;3.10;;;;;;;;;;7807130;22;24370;-84
2024/03/06 19:05:15;;;;;;;5.63;3.27;;;;;;;;;;7786298;22;24371;-88
2024/03/06 19:08:27;;;;;;;6.60;3.57;;;;;;;;;;7754236;22;24378;-84
2024/03/06 19:12:00;;;;;;;8.02;3.83;;;;;;;;;;7767166;22;24470;-82
2024/03/06 19:15:39;;;;;;;8.27;3.40;;;;;;;;;;7749809;22;25011;-85
2024/03/06 19:18:53;;;;;;;7.20;3.80;;;;;;;;;;7735562;22;24402;-85
2024/03/06 19:22:41;;;;;;;11.50;4.80;;;;;;;;;;7766969;22;24466;-87
2024/03/06 19:25:52;;;;;;;8.43;3.17;;;;;;;;;;7750354;22;24643;-90
2024/03/06 19:29:08;;;;;;;7.75;3.25;;;;;;;;;;7765985;22;24777;-88
2024/03/06 19:32:37;;;;;;;9.97;4.00;;;;;;;;;;7766664;22;24382;-83
2024/03/06 19:35:44;;;;;;;8.30;3.97;;;;;;;;;;7763196;22;24454;-83
2024/03/06 19:39:00;;;;;;;9.63;3.53;;;;;;;;;;7758418;23;24397;-87
2024/03/06 19:42:36;;;;;;;;;;;;;;;;;;;;;
2024/03/06 19:46:01;;;;;;;9.00;3.67;;;;;;;;;;7712358;23;24421;-85
2024/03/06 19:49:03;;;;;;;7.40;3.22;;;;;;;;;;7759100;23;24648;-88
2024/03/06 19:52:30;;;;;;;5.50;2.75;;;;;;;;;;7742364;23;24466;-86
2024/03/06 19:55:43;;;;;;;6.60;2.90;;;;;;;;;;7742968;23;24394;-86
2024/03/06 19:59:08;;;;;;;6.13;2.47;;;;;;;;;;7742902;23;24379;-87
2024/03/06 20:02:32;;;;;;;7.28;3.10;;;;;;;;;;7757739;23;24382;-84
2024/03/06 20:06:07;;;;;;;5.88;3.03;;;;;;;;;;7756017;22;24483;-84
2024/03/06 20:09:35;;;;;;;18.42;7.28;;;;;;;;;;7739717;23;24393;-84
2024/03/06 20:13:07;;;;;;;4.57;2.60;;;;;;;;;;7750879;23;24378;-86
2024/03/06 20:16:12;;;;;;;9.55;3.83;;;;;;;;;;7750302;23;24417;-83
2024/03/06 20:19:36;;;;;;;7.45;3.53;;;;;;;;;;7758532;22;24754;-84
2024/03/06 20:22:59;;;;;;;6.55;2.72;;;;;;;;;;7679449;23;24429;-85
2024/03/06 20:26:13;;;;;;;6.32;2.92;;;;;;;;;;7740007;23;24511;-88
2024/03/06 20:29:18;;;;;;;7.88;3.72;;;;;;;;;;7759095;23;24417;-89
2024/03/06 20:32:34;;;;;;;5.60;2.70;;;;;;;;;;7755834;23;24371;-84
2024/03/06 20:36:04;;;;;;;6.72;2.60;;;;;;;;;;7743355;23;24386;-87
2024/03/06 20:46:34;;;;;;;5.97;2.30;;;;;;;;;;7713368;23;24377;-83
2024/03/06 20:49:48;;;;;;;5.30;2.10;;;;;;;;;;7718943;23;24429;-85
2024/03/06 20:52:56;;;;;;;7.07;1.83;;;;;;;;;;7703731;23;24441;-84
2024/03/06 20:56:27;;;;;;;3.92;1.80;;;;;;;;;;7718048;23;24453;-85
2024/03/06 20:59:43;;;;;;;4.55;2.20;;;;;;;;;;7720145;23;24443;-86
2024/03/06 21:07:16;;;;;;;5.20;1.77;;;;;;;;;;7666947;23;24467;-85
2024/03/06 21:10:45;;;;;;;4.90;1.80;;;;;;;;;;7691073;23;24399;-86
2024/03/06 21:14:33;;;;;;;8.52;3.40;;;;;;;;;;7715254;23;24383;-87
2024/03/06 21:22:05;;;;;;;4.45;2.08;;;;;;;;;;7711519;23;24487;-84
2024/03/06 21:29:31;;;;;;;4.18;2.00;;;;;;;;;;7645373;23;24375;-86
2024/03/06 21:36:48;;;;;;;3.47;1.80;;;;;;;;;;7709176;23;24430;-83
2024/03/06 21:40:00;;;;;;;4.63;2.00;;;;;;;;;;7732657;23;24375;-82
2024/03/06 21:50:21;;;;;;;5.15;1.90;;;;;;;;;;7739825;23;24485;-81
2024/03/06 21:57:11;;;;;;;3.92;1.90;;;;;;;;;;7592403;23;24381;-84
2024/03/06 22:00:25;;;;;;;4.13;2.40;;;;;;;;;;7590779;23;24396;-85
2024/03/06 22:03:47;;;;;;;7.15;2.60;;;;;;;;;;7566504;23;24472;-81
2024/03/06 22:06:52;;;;;;;7.20;2.70;;;;;;;;;;7605362;23;24443;-85
2024/03/06 22:10:12;;;;;;;5.15;2.00;;;;;;;;;;7604549;23;24568;-83
2024/03/06 22:14:00;;;;;;;;;;;;;;;;;;;;;
2024/03/06 22:21:02;;;;;;;6.63;2.65;;;;;;;;;;7579628;23;24601;-82
2024/03/06 22:24:08;;;;;;;7.97;2.85;;;;;;;;;;7593005;23;24673;-82
2024/03/06 22:27:14;;;;;;;9.50;2.88;;;;;;;;;;7596361;23;24462;-85
2024/03/06 22:30:20;;;;;;;5.13;2.78;;;;;;;;;;7593794;23;24902;-83